createdAt,value
2023-05-24T00:00:56.041Z,12.40
2023-05-24T00:03:26.409Z,12.38
2023-05-24T00:05:57.093Z,12.34
2023-05-24T00:08:27.015Z,12.27
2023-05-24T00:10:56.901Z,12.24
2023-05-24T00:13:29.601Z,12.22
2023-05-24T00:15:59.612Z,12.21
2023-05-24T00:18:31.511Z,12.11
2023-05-24T00:21:01.493Z,12.09
2023-05-24T00:23:31.383Z,12.08
2023-05-24T00:26:01.620Z,12.02
2023-05-24T00:28:34.262Z,12.02
2023-05-24T00:31:04.975Z,11.99
2023-05-24T00:33:35.139Z,11.96
2023-05-24T00:36:05.064Z,11.94
2023-05-24T00:38:34.928Z,11.92
2023-05-24T00:41:05.176Z,11.93
2023-05-24T00:43:37.679Z,11.93
2023-05-24T00:46:19.200Z,11.91
2023-05-24T00:48:49.688Z,11.92
2023-05-24T00:51:19.898Z,11.93
2023-05-24T00:53:51.342Z,11.95
2023-05-24T00:56:21.377Z,11.93
2023-05-24T00:58:55.007Z,11.93
2023-05-24T01:01:26.753Z,11.93
2023-05-24T01:03:57.614Z,11.92
2023-05-24T01:06:28.736Z,11.89
2023-05-24T01:09:12.222Z,11.81
2023-05-24T01:11:54.039Z,11.78
2023-05-24T01:14:32.319Z,11.72
2023-05-24T01:17:09.633Z,11.69
2023-05-24T01:20:02.491Z,11.61
2023-05-24T01:23:01.310Z,11.60
2023-05-24T01:25:48.607Z,11.54
2023-05-24T01:28:22.056Z,11.50
2023-05-24T01:30:52.479Z,11.47
2023-05-24T01:33:22.531Z,11.43
2023-05-24T01:35:52.702Z,11.41
2023-05-24T01:38:22.563Z,11.38
2023-05-24T01:40:55.916Z,11.34
2023-05-24T01:43:36.970Z,11.29
2023-05-24T01:46:14.861Z,11.25
2023-05-24T01:48:57.602Z,11.20
2023-05-24T01:51:30.704Z,11.17
2023-05-24T01:54:02.327Z,11.16
2023-05-24T01:56:33.440Z,11.12
2023-05-24T01:59:06.465Z,11.08
2023-05-24T02:01:37.817Z,11.04
2023-05-24T02:04:08.121Z,11.01
2023-05-24T02:06:38.398Z,10.99
2023-05-24T02:09:08.285Z,10.96
2023-05-24T02:11:38.395Z,10.92
2023-05-24T02:14:11.431Z,10.91
2023-05-24T02:16:43.017Z,10.87
2023-05-24T02:19:13.045Z,10.84
2023-05-24T02:21:43.062Z,10.82
2023-05-24T02:24:13.282Z,10.78
2023-05-24T02:26:43.348Z,10.74
2023-05-24T02:29:15.812Z,10.72
2023-05-24T02:31:45.631Z,10.69
2023-05-24T02:34:15.528Z,10.67
2023-05-24T02:36:45.994Z,10.68
2023-05-24T02:39:16.071Z,10.69
2023-05-24T02:41:45.965Z,10.71
2023-05-24T02:44:18.589Z,10.72
2023-05-24T02:46:48.663Z,10.72
2023-05-24T02:49:18.614Z,10.71
2023-05-24T02:51:48.772Z,10.71
2023-05-24T02:54:18.992Z,10.70
2023-05-24T02:56:48.815Z,10.67
2023-05-24T02:59:21.333Z,10.63
2023-05-24T03:01:51.270Z,10.59
2023-05-24T03:04:21.202Z,10.56
2023-05-24T03:06:51.135Z,10.50
2023-05-24T03:09:21.094Z,10.47
2023-05-24T03:11:52.990Z,10.44
2023-05-24T03:14:25.512Z,10.40
2023-05-24T03:16:55.344Z,10.37
2023-05-24T03:19:25.810Z,10.35
2023-05-24T03:21:55.683Z,10.32
2023-05-24T03:24:26.298Z,10.30
2023-05-24T03:26:56.160Z,10.27
2023-05-24T03:29:28.684Z,10.25
2023-05-24T03:31:58.615Z,10.21
2023-05-24T03:34:28.539Z,10.17
2023-05-24T03:36:58.483Z,10.15
2023-05-24T03:39:28.322Z,10.12
2023-05-24T03:41:58.387Z,10.10
2023-05-24T03:44:30.917Z,10.09
2023-05-24T03:47:00.822Z,10.06
2023-05-24T03:49:30.726Z,10.04
2023-05-24T03:52:00.604Z,10.03
2023-05-24T03:54:30.593Z,10.01
2023-05-24T03:57:00.715Z,10.00
2023-05-24T03:59:33.557Z,9.99
2023-05-24T04:02:03.536Z,9.97
2023-05-24T04:04:33.536Z,9.96
2023-05-24T04:07:03.527Z,9.96
2023-05-24T04:09:33.500Z,9.94
2023-05-24T04:12:03.711Z,9.95
2023-05-24T04:14:36.246Z,9.94
2023-05-24T04:17:08.084Z,9.93
2023-05-24T04:19:37.976Z,9.93
2023-05-24T04:22:08.279Z,9.93
2023-05-24T04:24:38.439Z,9.96
2023-05-24T04:27:10.120Z,10.00
2023-05-24T04:29:43.120Z,10.04
2023-05-24T04:32:15.264Z,10.10
2023-05-24T04:34:46.219Z,10.15
2023-05-24T04:37:17.542Z,10.18
2023-05-24T04:39:47.654Z,10.21
2023-05-24T04:42:18.401Z,10.22
2023-05-24T04:44:50.943Z,10.23
2023-05-24T04:47:20.958Z,10.25
2023-05-24T04:49:51.212Z,10.26
2023-05-24T04:52:21.362Z,10.25
2023-05-24T04:54:52.036Z,10.28
2023-05-24T04:57:21.919Z,10.32
2023-05-24T04:59:54.655Z,10.37
2023-05-24T05:02:27.492Z,10.42
2023-05-24T05:04:57.391Z,10.41
2023-05-24T05:07:27.302Z,10.40
2023-05-24T05:09:57.339Z,10.39
2023-05-24T05:12:27.195Z,10.32
2023-05-24T05:14:59.724Z,10.35
2023-05-24T05:17:29.568Z,10.43
2023-05-24T05:19:59.713Z,10.49
2023-05-24T05:22:31.209Z,10.52
2023-05-24T05:25:01.264Z,10.54
2023-05-24T05:27:32.560Z,10.61
2023-05-24T05:30:05.094Z,10.71
2023-05-24T05:32:35.252Z,10.81
2023-05-24T05:35:05.281Z,10.88
2023-05-24T05:37:35.240Z,10.93
2023-05-24T05:40:06.198Z,11.01
2023-05-24T05:42:36.107Z,11.14
2023-05-24T05:45:10.343Z,11.21
2023-05-24T05:47:40.850Z,11.26
2023-05-24T05:50:11.484Z,11.34
2023-05-24T05:52:41.391Z,11.43
2023-05-24T05:55:12.635Z,11.50
2023-05-24T05:57:43.312Z,11.58
2023-05-24T06:00:17.104Z,11.69
2023-05-24T06:02:47.178Z,11.76
2023-05-24T06:05:17.145Z,11.78
2023-05-24T06:07:47.595Z,11.81
2023-05-24T06:10:17.840Z,11.88
2023-05-24T06:12:47.792Z,11.94
2023-05-24T06:15:22.853Z,11.95
2023-05-24T06:17:53.099Z,11.96
2023-05-24T06:20:23.645Z,12.03
2023-05-24T06:22:54.006Z,12.11
2023-05-24T06:25:24.722Z,12.12
2023-05-24T06:27:54.654Z,12.19
2023-05-24T06:30:27.277Z,12.31
2023-05-24T06:32:57.790Z,12.54
2023-05-24T06:35:27.852Z,12.72
2023-05-24T06:37:58.353Z,12.90
2023-05-24T06:40:28.304Z,13.12
2023-05-24T06:42:58.951Z,13.41
2023-05-24T06:45:31.659Z,13.62
2023-05-24T06:48:01.847Z,13.77
2023-05-24T06:50:32.227Z,13.64
2023-05-24T06:53:03.114Z,13.56
2023-05-24T06:55:33.207Z,13.58
2023-05-24T06:58:03.378Z,13.65
2023-05-24T07:00:35.905Z,13.70
2023-05-24T07:03:06.410Z,13.76
2023-05-24T07:05:36.930Z,13.77
2023-05-24T07:08:13.464Z,13.77
2023-05-24T07:10:45.496Z,13.81
2023-05-24T07:13:15.556Z,13.83
2023-05-24T07:15:49.953Z,13.81
2023-05-24T07:18:20.130Z,13.77
2023-05-24T07:20:50.802Z,13.71
2023-05-24T07:23:20.893Z,13.66
2023-05-24T07:25:50.901Z,13.61
2023-05-24T07:28:21.296Z,13.82
2023-05-24T07:30:53.882Z,13.91
2023-05-24T07:33:24.031Z,14.00
2023-05-24T07:35:53.995Z,14.02
2023-05-24T07:38:24.361Z,14.12
2023-05-24T07:40:54.220Z,14.23
2023-05-24T07:43:27.348Z,14.24
2023-05-24T07:45:59.892Z,14.27
2023-05-24T07:48:29.789Z,14.42
2023-05-24T07:50:59.770Z,14.87
2023-05-24T07:53:30.053Z,15.22
2023-05-24T07:55:59.999Z,15.13
2023-05-24T07:58:30.040Z,15.05
2023-05-24T08:01:02.645Z,15.17
2023-05-24T08:03:32.701Z,15.21
2023-05-24T08:06:03.092Z,15.22
2023-05-24T08:08:33.731Z,15.14
2023-05-24T08:11:03.781Z,15.11
2023-05-24T08:13:33.683Z,15.24
2023-05-24T08:16:09.383Z,15.31
2023-05-24T08:18:39.422Z,15.47
2023-05-24T08:21:09.491Z,15.83
2023-05-24T08:23:39.393Z,15.91
2023-05-24T08:26:09.486Z,15.81
2023-05-24T08:28:39.529Z,15.82
2023-05-24T08:31:12.398Z,15.93
2023-05-24T08:33:43.464Z,15.99
2023-05-24T08:36:13.418Z,16.25
2023-05-24T08:38:43.337Z,16.55
2023-05-24T08:41:14.364Z,16.73
2023-05-24T08:43:45.383Z,16.89
2023-05-24T08:46:21.593Z,16.89
2023-05-24T08:48:51.954Z,16.93
2023-05-24T08:51:22.868Z,17.20
2023-05-24T08:53:56.724Z,17.65
2023-05-24T08:56:29.101Z,17.97
2023-05-24T08:58:59.196Z,18.20
2023-05-24T09:01:35.432Z,18.54
2023-05-24T09:04:09.223Z,18.72
2023-05-24T09:06:39.819Z,18.63
2023-05-24T09:09:13.025Z,18.94
2023-05-24T09:11:45.878Z,18.89
2023-05-24T09:14:17.078Z,18.74
2023-05-24T09:16:49.839Z,18.57
2023-05-24T09:19:20.130Z,18.41
2023-05-24T09:21:53.511Z,18.36
2023-05-24T09:24:23.466Z,18.35
2023-05-24T09:26:54.224Z,18.36
2023-05-24T09:29:26.500Z,18.52
2023-05-24T09:32:04.829Z,18.27
2023-05-24T09:34:42.248Z,18.34
2023-05-24T09:37:17.229Z,18.46
2023-05-24T09:39:48.284Z,18.42
2023-05-24T09:42:21.677Z,18.37
2023-05-24T09:44:52.640Z,18.20
2023-05-24T09:47:25.268Z,18.29
2023-05-24T09:49:55.578Z,18.64
2023-05-24T09:52:25.741Z,19.12
2023-05-24T09:54:55.781Z,19.44
2023-05-24T09:57:27.216Z,19.47
2023-05-24T09:59:57.115Z,19.83
2023-05-24T10:02:38.210Z,20.28
2023-05-24T10:05:13.596Z,20.43
2023-05-24T10:07:44.278Z,20.21
2023-05-24T10:10:14.987Z,19.78
2023-05-24T10:12:47.111Z,19.44
2023-05-24T10:15:19.827Z,19.37
2023-05-24T10:17:52.495Z,19.22
2023-05-24T10:20:23.365Z,19.12
2023-05-24T10:22:56.019Z,19.28
2023-05-24T10:25:27.940Z,19.44
2023-05-24T10:28:01.728Z,19.56
2023-05-24T10:30:37.883Z,19.66
2023-05-24T10:33:11.702Z,19.67
2023-05-24T10:35:43.379Z,19.68
2023-05-24T10:38:13.769Z,19.67
2023-05-24T10:40:45.359Z,19.62
2023-05-24T10:43:19.558Z,19.58
2023-05-24T10:45:53.370Z,19.36
2023-05-24T10:48:39.825Z,19.29
2023-05-24T10:51:38.915Z,19.34
2023-05-24T10:54:16.633Z,19.50
2023-05-24T10:56:51.820Z,19.55
2023-05-24T10:59:38.023Z,19.59
2023-05-24T11:02:14.233Z,19.65
2023-05-24T11:04:50.644Z,19.62
2023-05-24T11:07:22.840Z,19.69
2023-05-24T11:09:57.494Z,19.68
2023-05-24T11:12:38.841Z,19.46
2023-05-24T11:15:12.699Z,19.39
2023-05-24T11:18:20.495Z,19.21
2023-05-24T11:20:53.528Z,19.21
2023-05-24T11:23:23.568Z,19.13
2023-05-24T11:25:54.149Z,19.09
2023-05-24T11:28:24.585Z,19.08
2023-05-24T11:30:54.569Z,18.89
2023-05-24T11:33:25.869Z,18.84
2023-05-24T11:35:58.774Z,18.77
2023-05-24T11:38:31.669Z,18.69
2023-05-24T11:41:04.544Z,18.72
2023-05-24T11:43:34.608Z,18.74
2023-05-24T11:46:04.877Z,18.74
2023-05-24T11:48:35.230Z,18.79
2023-05-24T11:51:08.243Z,18.77
2023-05-24T11:53:38.213Z,18.87
2023-05-24T11:56:10.042Z,19.01
2023-05-24T11:58:47.849Z,19.03
2023-05-24T12:01:28.601Z,19.07
2023-05-24T12:03:58.752Z,19.20
2023-05-24T12:06:38.322Z,19.26
2023-05-24T12:09:09.423Z,19.44
2023-05-24T12:11:43.032Z,19.35
2023-05-24T12:14:17.303Z,19.47
2023-05-24T12:16:48.541Z,19.57
2023-05-24T12:19:32.448Z,19.56
2023-05-24T12:22:09.408Z,19.65
2023-05-24T12:24:41.547Z,19.78
2023-05-24T12:27:11.577Z,20.02
2023-05-24T12:29:43.623Z,20.12
2023-05-24T12:32:15.634Z,20.13
2023-05-24T12:34:47.030Z,20.27
2023-05-24T12:37:22.815Z,20.24
2023-05-24T12:39:54.525Z,20.28
2023-05-24T12:42:24.914Z,20.19
2023-05-24T12:44:55.386Z,20.42
2023-05-24T12:47:25.512Z,20.53
2023-05-24T12:49:55.458Z,20.49
2023-05-24T12:52:28.261Z,20.31
2023-05-24T12:54:58.178Z,20.25
2023-05-24T12:57:28.135Z,20.27
2023-05-24T12:59:58.111Z,20.31
2023-05-24T13:02:28.180Z,20.35
2023-05-24T13:04:58.204Z,20.30
2023-05-24T13:07:32.138Z,20.18
2023-05-24T13:10:02.149Z,20.27
2023-05-24T13:12:31.981Z,20.31
2023-05-24T13:15:02.243Z,20.40
2023-05-24T13:17:32.594Z,20.50
2023-05-24T13:20:08.456Z,20.57
2023-05-24T13:22:44.253Z,20.52
2023-05-24T13:25:14.313Z,20.51
2023-05-24T13:27:44.578Z,20.51
2023-05-24T13:30:17.463Z,20.58
2023-05-24T13:32:47.555Z,20.53
2023-05-24T13:35:18.363Z,20.47
2023-05-24T13:37:51.336Z,20.46
2023-05-24T13:40:21.682Z,20.44
2023-05-24T13:42:51.695Z,20.43
2023-05-24T13:45:23.153Z,20.48
2023-05-24T13:47:53.760Z,20.39
2023-05-24T13:50:24.070Z,20.42
2023-05-24T13:52:57.636Z,20.44
2023-05-24T13:55:28.961Z,20.58
2023-05-24T13:57:59.238Z,20.65
2023-05-24T14:00:29.226Z,20.63
2023-05-24T14:02:59.590Z,20.54
2023-05-24T14:05:31.120Z,20.46
2023-05-24T14:08:07.242Z,20.31
2023-05-24T14:10:37.923Z,20.31
2023-05-24T14:15:41.268Z,20.26
2023-05-24T14:18:11.560Z,20.18
2023-05-24T14:20:41.994Z,20.24
2023-05-24T14:23:14.803Z,20.29
2023-05-24T14:25:47.091Z,20.33
2023-05-24T14:28:17.306Z,20.29
2023-05-24T14:30:47.420Z,20.28
2023-05-24T14:33:17.707Z,20.27
2023-05-24T14:35:48.389Z,20.28
2023-05-24T14:38:21.082Z,20.16
2023-05-24T14:40:51.450Z,20.08
2023-05-24T14:43:21.677Z,20.11
2023-05-24T14:45:51.715Z,20.17
2023-05-24T14:48:21.882Z,20.12
2023-05-24T14:50:51.891Z,20.16
2023-05-24T14:53:24.465Z,20.15
2023-05-24T14:55:54.637Z,20.12
2023-05-24T14:58:24.934Z,20.08
2023-05-24T15:00:55.648Z,20.01
2023-05-24T15:03:25.937Z,20.05
2023-05-24T15:05:56.061Z,20.03
2023-05-24T15:08:28.641Z,20.06
2023-05-24T15:10:59.205Z,20.12
2023-05-24T15:13:29.230Z,20.08
2023-05-24T15:16:00.772Z,19.93
2023-05-24T15:18:33.138Z,19.93
2023-05-24T15:21:03.334Z,19.83
2023-05-24T15:23:36.645Z,19.83
2023-05-24T15:26:06.691Z,19.83
2023-05-24T15:28:36.787Z,19.82
2023-05-24T15:31:07.332Z,19.84
2023-05-24T15:33:38.855Z,19.86
2023-05-24T15:36:10.406Z,19.94
2023-05-24T15:38:46.580Z,20.00
2023-05-24T15:41:16.529Z,20.06
2023-05-24T15:43:46.766Z,20.11
2023-05-24T15:46:16.812Z,20.14
2023-05-24T15:48:46.798Z,20.12
2023-05-24T15:53:52.563Z,20.13
2023-05-24T15:56:23.572Z,19.98
2023-05-24T15:58:53.619Z,19.94
2023-05-24T16:01:23.570Z,19.99
2023-05-24T16:03:53.610Z,19.97
2023-05-24T16:06:23.559Z,19.91
2023-05-24T16:08:56.038Z,19.90
2023-05-24T16:11:26.216Z,19.88
2023-05-24T16:13:57.199Z,19.92
2023-05-24T16:16:28.858Z,19.93
2023-05-24T16:18:58.880Z,19.85
2023-05-24T16:21:29.085Z,19.78
2023-05-24T16:24:03.545Z,19.77
2023-05-24T16:26:33.648Z,19.78
2023-05-24T16:29:03.945Z,19.80
2023-05-24T16:31:33.933Z,19.80
2023-05-24T16:34:03.933Z,19.87
2023-05-24T16:36:34.352Z,19.86
2023-05-24T16:39:07.626Z,19.84
2023-05-24T16:41:37.935Z,19.89
2023-05-24T16:44:07.893Z,19.93
2023-05-24T16:46:37.914Z,19.96
2023-05-24T16:49:07.879Z,19.95
2023-05-24T16:51:37.809Z,20.00
2023-05-24T16:54:10.713Z,19.98
2023-05-24T16:56:40.886Z,19.98
2023-05-24T16:59:10.800Z,20.00
2023-05-24T17:01:40.798Z,19.99
2023-05-24T17:04:11.318Z,20.01
2023-05-24T17:06:42.797Z,20.04
2023-05-24T17:09:16.192Z,20.00
2023-05-24T17:11:46.159Z,19.88
2023-05-24T17:14:16.106Z,19.84
2023-05-24T17:16:46.102Z,19.86
2023-05-24T17:19:16.250Z,19.84
2023-05-24T17:21:46.681Z,19.75
2023-05-24T17:24:19.571Z,19.63
2023-05-24T17:26:49.474Z,19.57
2023-05-24T17:29:19.358Z,19.57
2023-05-24T17:31:49.607Z,19.42
2023-05-24T17:34:19.687Z,19.35
2023-05-24T17:36:49.654Z,19.31
2023-05-24T17:39:26.757Z,19.31
2023-05-24T17:41:56.723Z,19.21
2023-05-24T17:44:26.797Z,19.04
2023-05-24T17:46:57.676Z,19.01
2023-05-24T17:49:27.744Z,19.02
2023-05-24T17:52:00.324Z,18.93
2023-05-24T17:54:33.264Z,18.81
2023-05-24T17:57:03.162Z,18.76
2023-05-24T17:59:33.094Z,18.75
2023-05-24T18:02:03.335Z,18.81
2023-05-24T18:04:33.443Z,18.82
2023-05-24T18:07:03.437Z,18.74
2023-05-24T18:09:36.201Z,18.53
2023-05-24T18:12:07.130Z,18.50
2023-05-24T18:14:37.232Z,18.52
2023-05-24T18:17:09.306Z,18.58
2023-05-24T18:19:39.293Z,18.63
2023-05-24T18:22:09.525Z,18.69
2023-05-24T18:24:42.093Z,18.75
2023-05-24T18:27:12.076Z,18.75
2023-05-24T18:29:42.208Z,18.75
2023-05-24T18:32:12.218Z,18.69
2023-05-24T18:34:42.551Z,18.65
2023-05-24T18:37:12.456Z,18.62
2023-05-24T18:39:45.106Z,18.61
2023-05-24T18:42:15.568Z,18.60
2023-05-24T18:44:45.603Z,18.58
2023-05-24T18:47:15.469Z,18.57
2023-05-24T18:49:45.636Z,18.55
2023-05-24T18:52:16.208Z,18.53
2023-05-24T18:54:49.171Z,18.43
2023-05-24T18:57:19.349Z,18.43
2023-05-24T18:59:49.403Z,18.47
2023-05-24T19:02:20.189Z,18.52
2023-05-24T19:04:52.416Z,18.53
2023-05-24T19:07:22.576Z,18.46
2023-05-24T19:09:55.469Z,18.42
2023-05-24T19:12:25.752Z,18.35
2023-05-24T19:14:55.935Z,18.31
2023-05-24T19:17:26.429Z,18.30
2023-05-24T19:19:56.689Z,18.30
2023-05-24T19:22:29.379Z,18.31
2023-05-24T19:25:02.058Z,18.26
2023-05-24T19:27:32.064Z,18.16
2023-05-24T19:30:02.108Z,18.13
2023-05-24T19:32:32.413Z,18.09
2023-05-24T19:35:02.518Z,18.02
2023-05-24T19:37:32.472Z,18.00
2023-05-24T19:40:05.540Z,17.94
2023-05-24T19:42:38.932Z,17.91
2023-05-24T19:45:10.519Z,17.87
2023-05-24T19:47:41.029Z,17.83
2023-05-24T19:50:11.985Z,17.81
2023-05-24T19:52:42.312Z,17.77
2023-05-24T19:55:15.629Z,17.73
2023-05-24T19:57:45.829Z,17.65
2023-05-24T20:00:16.541Z,17.59
2023-05-24T20:02:46.719Z,17.51
2023-05-24T20:05:17.580Z,17.44
2023-05-24T20:07:47.627Z,17.39
2023-05-24T20:10:20.583Z,17.36
2023-05-24T20:12:50.984Z,17.32
2023-05-24T20:15:21.601Z,17.25
2023-05-24T20:17:51.701Z,17.19
2023-05-24T20:20:21.736Z,17.14
2023-05-24T20:22:51.784Z,17.08
2023-05-24T20:25:24.932Z,17.02
2023-05-24T20:27:54.976Z,17.01
2023-05-24T20:30:24.970Z,16.94
2023-05-24T20:32:55.278Z,16.89
2023-05-24T20:35:25.444Z,16.87
2023-05-24T20:37:55.450Z,16.73
2023-05-24T20:40:28.149Z,16.68
2023-05-24T20:42:58.236Z,16.62
2023-05-24T20:45:28.265Z,16.60
2023-05-24T20:47:58.897Z,16.58
2023-05-24T20:50:29.004Z,16.56
2023-05-24T20:52:59.001Z,16.55
2023-05-24T20:55:31.904Z,16.45
2023-05-24T20:58:01.855Z,16.39
2023-05-24T21:00:31.794Z,16.37
2023-05-24T21:03:01.929Z,16.28
2023-05-24T21:05:32.096Z,16.24
2023-05-24T21:08:02.038Z,16.17
2023-05-24T21:10:34.796Z,16.18
2023-05-24T21:13:04.728Z,16.18
2023-05-24T21:15:37.466Z,16.21
2023-05-24T21:18:07.685Z,16.23
2023-05-24T21:20:37.698Z,16.25
2023-05-24T21:23:08.090Z,16.27
2023-05-24T21:25:40.819Z,16.27
2023-05-24T21:28:13.032Z,16.27
2023-05-24T21:30:43.179Z,16.25
2023-05-24T21:33:13.442Z,16.24
2023-05-24T21:35:43.848Z,16.19
2023-05-24T21:38:14.035Z,16.16
2023-05-24T21:40:46.692Z,16.12
2023-05-24T21:43:16.990Z,16.11
2023-05-24T21:45:47.102Z,16.03
2023-05-24T21:48:17.125Z,15.99
2023-05-24T21:50:47.147Z,15.99
2023-05-24T21:53:17.204Z,15.96
2023-05-24T21:55:51.864Z,15.95
2023-05-24T21:58:21.807Z,15.91
2023-05-24T22:00:51.869Z,15.88
2023-05-24T22:03:22.506Z,15.82
2023-05-24T22:05:52.882Z,15.75
2023-05-24T22:08:22.830Z,15.67
2023-05-24T22:10:55.778Z,15.61
2023-05-24T22:13:25.727Z,15.54
2023-05-24T22:15:55.821Z,15.51
2023-05-24T22:18:28.805Z,15.46
2023-05-24T22:21:00.431Z,15.40
2023-05-24T22:23:30.598Z,15.35
2023-05-24T22:26:03.564Z,15.27
2023-05-24T22:28:51.071Z,15.24
2023-05-24T22:31:21.842Z,15.17
2023-05-24T22:33:52.416Z,15.13
2023-05-24T22:36:22.778Z,15.08
2023-05-24T22:38:53.154Z,15.03
2023-05-24T22:41:27.763Z,14.96
2023-05-24T22:44:01.582Z,14.92
2023-05-24T22:46:32.056Z,14.87
2023-05-24T22:49:03.408Z,14.84
2023-05-24T22:51:33.418Z,14.79
2023-05-24T22:54:03.731Z,14.75
2023-05-24T22:56:36.351Z,14.70
2023-05-24T22:59:06.385Z,14.67
2023-05-24T23:01:36.869Z,14.63
2023-05-24T23:06:41.904Z,14.52
2023-05-24T23:09:12.808Z,14.48
2023-05-24T23:11:46.329Z,14.44
2023-05-24T23:14:17.205Z,14.40
2023-05-24T23:16:47.264Z,14.35
2023-05-24T23:19:19.036Z,14.31
2023-05-24T23:21:52.496Z,14.26
2023-05-24T23:24:22.585Z,14.21
2023-05-24T23:26:56.231Z,14.17
2023-05-24T23:29:26.385Z,14.13
2023-05-24T23:31:56.302Z,14.11
2023-05-24T23:34:26.400Z,14.07
2023-05-24T23:36:57.865Z,13.96
2023-05-24T23:39:27.805Z,13.91
2023-05-24T23:42:00.540Z,13.89
2023-05-24T23:44:30.724Z,13.85
2023-05-24T23:47:01.327Z,13.82
2023-05-24T23:49:32.117Z,13.79
2023-05-24T23:52:02.190Z,13.77
2023-05-24T23:54:32.193Z,13.73
2023-05-24T23:57:07.707Z,13.71
2023-05-24T23:59:37.964Z,13.67
